Terminal Aerodrome Forecast
Issued by NWS

Home | Current Version | Previous Version | Text Only | Print | Product List | Glossary On
Versions: 1 2 3 4 5 6 7 8 9 10 11 12 13 14 15 16 17 18 19 20
000
FTUS46 KSEW 271342 AAB
TAFPAE
TAF AMD
KPAE 271342Z 2714/2812 35007KT P6SM SCT030 BKN060
     FM271800 35007KT P6SM SCT060
     FM272000 35006KT P6SM SCT200
     FM280800 VRB03KT P6SM BKN030=

USA.gov is the U.S. government's official web portal to all federal, state and local government web resources and services.